sensor_id;sensor_type;location;lat;lon;timestamp;P1;durP1;ratioP1;P2;durP2;ratioP2
44646;SDS011;56315;-33.902;151.160;2023-04-30T00:00:04;0.60;;;0.30;;
44646;SDS011;56315;-33.902;151.160;2023-04-30T00:02:34;1.65;;;0.28;;
44646;SDS011;56315;-33.902;151.160;2023-04-30T00:05:01;0.65;;;0.38;;
44646;SDS011;56315;-33.902;151.160;2023-04-30T00:07:28;1.05;;;0.20;;
44646;SDS011;56315;-33.902;151.160;2023-04-30T00:09:56;0.98;;;0.40;;
44646;SDS011;56315;-33.902;151.160;2023-04-30T00:12:24;0.32;;;0.20;;
44646;SDS011;56315;-33.902;151.160;2023-04-30T00:14:51;0.45;;;0.20;;
44646;SDS011;56315;-33.902;151.160;2023-04-30T00:17:20;0.60;;;0.20;;
44646;SDS011;56315;-33.902;151.160;2023-04-30T00:19:48;1.02;;;0.30;;
44646;SDS011;56315;-33.902;151.160;2023-04-30T00:22:15;0.20;;;0.20;;
44646;SDS011;56315;-33.902;151.160;2023-04-30T00:24:42;0.45;;;0.20;;
44646;SDS011;56315;-33.902;151.160;2023-04-30T00:27:10;1.23;;;0.20;;
44646;SDS011;56315;-33.902;151.160;2023-04-30T00:29:37;0.85;;;0.20;;
44646;SDS011;56315;-33.902;151.160;2023-04-30T00:32:04;1.45;;;0.30;;
44646;SDS011;56315;-33.902;151.160;2023-04-30T00:34:31;0.03;;;0.03;;
44646;SDS011;56315;-33.902;151.160;2023-04-30T00:36:59;1.08;;;0.20;;
44646;SDS011;56315;-33.902;151.160;2023-04-30T00:39:26;1.10;;;0.40;;
44646;SDS011;56315;-33.902;151.160;2023-04-30T00:41:53;1.02;;;0.40;;
44646;SDS011;56315;-33.902;151.160;2023-04-30T00:44:21;0.68;;;0.40;;
44646;SDS011;56315;-33.902;151.160;2023-04-30T00:46:48;0.73;;;0.25;;
44646;SDS011;56315;-33.902;151.160;2023-04-30T00:49:15;1.48;;;0.30;;
44646;SDS011;56315;-33.902;151.160;2023-04-30T00:51:42;0.93;;;0.50;;
44646;SDS011;56315;-33.902;151.160;2023-04-30T00:54:10;0.43;;;0.35;;
44646;SDS011;56315;-33.902;151.160;2023-04-30T00:56:37;1.23;;;0.20;;
44646;SDS011;56315;-33.902;151.160;2023-04-30T00:59:05;0.32;;;0.20;;
44646;SDS011;56315;-33.902;151.160;2023-04-30T01:01:32;0.65;;;0.30;;
44646;SDS011;56315;-33.902;151.160;2023-04-30T01:03:59;0.65;;;0.30;;
44646;SDS011;56315;-33.902;151.160;2023-04-30T01:06:27;1.65;;;0.30;;
44646;SDS011;56315;-33.902;151.160;2023-04-30T01:08:54;0.20;;;0.20;;
44646;SDS011;56315;-33.902;151.160;2023-04-30T01:11:27;0.57;;;0.20;;
44646;SDS011;56315;-33.902;151.160;2023-04-30T01:14:16;0.60;;;0.30;;
44646;SDS011;56315;-33.902;151.160;2023-04-30T01:17:20;0.52;;;0.20;;
44646;SDS011;56315;-33.902;151.160;2023-04-30T01:20:05;1.17;;;0.30;;
44646;SDS011;56315;-33.902;151.160;2023-04-30T01:25:24;1.40;;;0.30;;
44646;SDS011;56315;-33.902;151.160;2023-04-30T01:28:00;0.30;;;0.20;;
44646;SDS011;56315;-33.902;151.160;2023-04-30T01:30:30;1.33;;;0.40;;
44646;SDS011;56315;-33.902;151.160;2023-04-30T01:32:58;0.68;;;0.30;;
44646;SDS011;56315;-33.902;151.160;2023-04-30T01:38:32;11.43;;;10.18;;
44646;SDS011;56315;-33.902;151.160;2023-04-30T01:41:25;0.73;;;0.50;;
44646;SDS011;56315;-33.902;151.160;2023-04-30T01:52:20;3.00;;;0.43;;
44646;SDS011;56315;-33.902;151.160;2023-04-30T01:55:20;1.33;;;0.20;;
44646;SDS011;56315;-33.902;151.160;2023-04-30T01:58:02;0.30;;;0.20;;
44646;SDS011;56315;-33.902;151.160;2023-04-30T02:00:32;0.20;;;0.20;;
44646;SDS011;56315;-33.902;151.160;2023-04-30T02:02:59;0.20;;;0.20;;
44646;SDS011;56315;-33.902;151.160;2023-04-30T02:05:27;0.40;;;0.30;;
44646;SDS011;56315;-33.902;151.160;2023-04-30T02:07:54;0.32;;;0.20;;
44646;SDS011;56315;-33.902;151.160;2023-04-30T02:10:22;1.17;;;0.40;;
44646;SDS011;56315;-33.902;151.160;2023-04-30T02:12:51;0.93;;;0.20;;
44646;SDS011;56315;-33.902;151.160;2023-04-30T02:15:18;0.47;;;0.20;;
44646;SDS011;56315;-33.902;151.160;2023-04-30T02:17:46;1.55;;;0.40;;
44646;SDS011;56315;-33.902;151.160;2023-04-30T02:20:13;0.47;;;0.35;;
44646;SDS011;56315;-33.902;151.160;2023-04-30T02:22:40;0.98;;;0.40;;
44646;SDS011;56315;-33.902;151.160;2023-04-30T02:25:08;0.47;;;0.30;;
44646;SDS011;56315;-33.902;151.160;2023-04-30T02:27:37;0.22;;;0.17;;
44646;SDS011;56315;-33.902;151.160;2023-04-30T02:30:04;1.08;;;0.15;;
44646;SDS011;56315;-33.902;151.160;2023-04-30T02:32:32;0.45;;;0.20;;
44646;SDS011;56315;-33.902;151.160;2023-04-30T02:34:59;0.20;;;0.20;;
44646;SDS011;56315;-33.902;151.160;2023-04-30T02:37:26;0.45;;;0.20;;
44646;SDS011;56315;-33.902;151.160;2023-04-30T02:39:54;0.20;;;0.20;;
44646;SDS011;56315;-33.902;151.160;2023-04-30T02:42:21;0.65;;;0.20;;
44646;SDS011;56315;-33.902;151.160;2023-04-30T02:44:49;1.67;;;0.30;;
44646;SDS011;56315;-33.902;151.160;2023-04-30T02:47:16;0.13;;;0.10;;
44646;SDS011;56315;-33.902;151.160;2023-04-30T02:49:43;0.75;;;0.20;;
44646;SDS011;56315;-33.902;151.160;2023-04-30T02:52:10;0.30;;;0.30;;
44646;SDS011;56315;-33.902;151.160;2023-04-30T02:54:37;0.65;;;0.45;;
44646;SDS011;56315;-33.902;151.160;2023-04-30T02:57:05;0.47;;;0.28;;
44646;SDS011;56315;-33.902;151.160;2023-04-30T02:59:32;1.77;;;0.45;;
44646;SDS011;56315;-33.902;151.160;2023-04-30T03:01:59;1.20;;;0.20;;
44646;SDS011;56315;-33.902;151.160;2023-04-30T03:04:26;0.63;;;0.30;;
44646;SDS011;56315;-33.902;151.160;2023-04-30T03:06:53;0.70;;;0.30;;
44646;SDS011;56315;-33.902;151.160;2023-04-30T03:09:21;1.48;;;0.30;;
44646;SDS011;56315;-33.902;151.160;2023-04-30T03:11:48;0.93;;;0.50;;
44646;SDS011;56315;-33.902;151.160;2023-04-30T03:14:15;0.77;;;0.25;;
44646;SDS011;56315;-33.902;151.160;2023-04-30T03:16:42;0.55;;;0.30;;
44646;SDS011;56315;-33.902;151.160;2023-04-30T03:19:10;0.63;;;0.30;;
44646;SDS011;56315;-33.902;151.160;2023-04-30T03:21:37;0.32;;;0.20;;
44646;SDS011;56315;-33.902;151.160;2023-04-30T03:24:04;0.98;;;0.20;;
44646;SDS011;56315;-33.902;151.160;2023-04-30T03:26:32;0.15;;;0.15;;
44646;SDS011;56315;-33.902;151.160;2023-04-30T03:28:59;1.10;;;0.50;;
44646;SDS011;56315;-33.902;151.160;2023-04-30T03:31:27;1.65;;;0.20;;
44646;SDS011;56315;-33.902;151.160;2023-04-30T03:33:54;1.00;;;0.40;;
44646;SDS011;56315;-33.902;151.160;2023-04-30T03:36:21;0.90;;;0.40;;
44646;SDS011;56315;-33.902;151.160;2023-04-30T03:38:48;0.63;;;0.60;;
44646;SDS011;56315;-33.902;151.160;2023-04-30T03:41:16;1.88;;;0.50;;
44646;SDS011;56315;-33.902;151.160;2023-04-30T03:43:44;2.13;;;0.20;;
44646;SDS011;56315;-33.902;151.160;2023-04-30T03:46:11;0.52;;;0.30;;
44646;SDS011;56315;-33.902;151.160;2023-04-30T03:48:38;0.47;;;0.25;;
44646;SDS011;56315;-33.902;151.160;2023-04-30T03:51:05;0.50;;;0.30;;
44646;SDS011;56315;-33.902;151.160;2023-04-30T03:53:34;0.88;;;0.30;;
44646;SDS011;56315;-33.902;151.160;2023-04-30T03:56:01;1.30;;;0.20;;
44646;SDS011;56315;-33.902;151.160;2023-04-30T03:58:29;0.95;;;0.30;;
44646;SDS011;56315;-33.902;151.160;2023-04-30T04:00:56;0.73;;;0.40;;
44646;SDS011;56315;-33.902;151.160;2023-04-30T04:03:23;0.55;;;0.45;;
44646;SDS011;56315;-33.902;151.160;2023-04-30T04:05:51;2.47;;;0.43;;
44646;SDS011;56315;-33.902;151.160;2023-04-30T04:08:18;0.30;;;0.20;;
44646;SDS011;56315;-33.902;151.160;2023-04-30T04:10:45;0.38;;;0.20;;
44646;SDS011;56315;-33.902;151.160;2023-04-30T04:13:13;0.75;;;0.40;;
44646;SDS011;56315;-33.902;151.160;2023-04-30T04:15:40;0.38;;;0.20;;
44646;SDS011;56315;-33.902;151.160;2023-04-30T04:18:07;1.38;;;0.30;;
44646;SDS011;56315;-33.902;151.160;2023-04-30T04:20:35;1.55;;;0.40;;
44646;SDS011;56315;-33.902;151.160;2023-04-30T04:23:02;0.10;;;0.10;;
44646;SDS011;56315;-33.902;151.160;2023-04-30T04:25:29;0.75;;;0.20;;
44646;SDS011;56315;-33.902;151.160;2023-04-30T04:27:57;1.17;;;0.30;;
44646;SDS011;56315;-33.902;151.160;2023-04-30T04:30:25;1.13;;;0.38;;
44646;SDS011;56315;-33.902;151.160;2023-04-30T04:32:52;0.35;;;0.10;;
44646;SDS011;56315;-33.902;151.160;2023-04-30T04:35:19;0.65;;;0.28;;
44646;SDS011;56315;-33.902;151.160;2023-04-30T04:37:47;0.47;;;0.20;;
44646;SDS011;56315;-33.902;151.160;2023-04-30T04:40:14;0.47;;;0.22;;
44646;SDS011;56315;-33.902;151.160;2023-04-30T04:42:41;1.52;;;0.30;;
44646;SDS011;56315;-33.902;151.160;2023-04-30T04:45:09;0.95;;;0.30;;
44646;SDS011;56315;-33.902;151.160;2023-04-30T04:47:36;1.10;;;0.30;;
44646;SDS011;56315;-33.902;151.160;2023-04-30T04:50:03;0.20;;;0.20;;
44646;SDS011;56315;-33.902;151.160;2023-04-30T04:52:31;0.55;;;0.20;;
44646;SDS011;56315;-33.902;151.160;2023-04-30T04:54:58;0.38;;;0.20;;
44646;SDS011;56315;-33.902;151.160;2023-04-30T04:57:25;0.95;;;0.20;;
44646;SDS011;56315;-33.902;151.160;2023-04-30T04:59:53;0.35;;;0.10;;
44646;SDS011;56315;-33.902;151.160;2023-04-30T05:02:21;0.13;;;0.10;;
44646;SDS011;56315;-33.902;151.160;2023-04-30T05:04:48;0.20;;;0.15;;
44646;SDS011;56315;-33.902;151.160;2023-04-30T05:07:16;1.25;;;0.20;;
44646;SDS011;56315;-33.902;151.160;2023-04-30T05:09:44;0.40;;;0.20;;
44646;SDS011;56315;-33.902;151.160;2023-04-30T05:12:12;0.20;;;0.20;;
44646;SDS011;56315;-33.902;151.160;2023-04-30T05:14:39;0.38;;;0.20;;
44646;SDS011;56315;-33.902;151.160;2023-04-30T05:17:07;0.22;;;0.20;;
44646;SDS011;56315;-33.902;151.160;2023-04-30T05:19:34;0.20;;;0.20;;
44646;SDS011;56315;-33.902;151.160;2023-04-30T05:22:02;1.25;;;0.25;;
44646;SDS011;56315;-33.902;151.160;2023-04-30T05:24:29;1.50;;;0.38;;
44646;SDS011;56315;-33.902;151.160;2023-04-30T05:26:57;0.40;;;0.30;;
44646;SDS011;56315;-33.902;151.160;2023-04-30T05:29:24;1.80;;;0.32;;
44646;SDS011;56315;-33.902;151.160;2023-04-30T05:31:51;0.47;;;0.28;;
44646;SDS011;56315;-33.902;151.160;2023-04-30T05:34:19;0.20;;;0.20;;
44646;SDS011;56315;-33.902;151.160;2023-04-30T05:36:46;0.13;;;0.10;;
44646;SDS011;56315;-33.902;151.160;2023-04-30T05:39:13;0.13;;;0.13;;
44646;SDS011;56315;-33.902;151.160;2023-04-30T05:41:41;0.30;;;0.10;;
44646;SDS011;56315;-33.902;151.160;2023-04-30T05:44:08;0.10;;;0.00;;
44646;SDS011;56315;-33.902;151.160;2023-04-30T05:46:35;0.43;;;0.20;;
44646;SDS011;56315;-33.902;151.160;2023-04-30T05:49:02;0.30;;;0.20;;
44646;SDS011;56315;-33.902;151.160;2023-04-30T05:51:30;0.30;;;0.20;;
44646;SDS011;56315;-33.902;151.160;2023-04-30T05:53:57;0.32;;;0.20;;
44646;SDS011;56315;-33.902;151.160;2023-04-30T05:56:24;0.40;;;0.20;;
44646;SDS011;56315;-33.902;151.160;2023-04-30T05:58:52;0.65;;;0.30;;
44646;SDS011;56315;-33.902;151.160;2023-04-30T06:01:19;0.22;;;0.20;;
44646;SDS011;56315;-33.902;151.160;2023-04-30T06:03:47;0.45;;;0.20;;
44646;SDS011;56315;-33.902;151.160;2023-04-30T06:06:15;0.30;;;0.10;;
44646;SDS011;56315;-33.902;151.160;2023-04-30T06:08:42;0.30;;;0.20;;
44646;SDS011;56315;-33.902;151.160;2023-04-30T06:11:10;0.93;;;0.20;;
44646;SDS011;56315;-33.902;151.160;2023-04-30T06:13:38;0.20;;;0.20;;
44646;SDS011;56315;-33.902;151.160;2023-04-30T06:16:06;0.08;;;0.08;;
44646;SDS011;56315;-33.902;151.160;2023-04-30T06:18:33;0.52;;;0.30;;
44646;SDS011;56315;-33.902;151.160;2023-04-30T06:21:01;0.25;;;0.17;;
44646;SDS011;56315;-33.902;151.160;2023-04-30T06:23:28;0.73;;;0.20;;
44646;SDS011;56315;-33.902;151.160;2023-04-30T06:25:55;0.10;;;0.10;;
44646;SDS011;56315;-33.902;151.160;2023-04-30T06:28:23;0.30;;;0.20;;
44646;SDS011;56315;-33.902;151.160;2023-04-30T06:30:50;1.70;;;0.60;;
44646;SDS011;56315;-33.902;151.160;2023-04-30T06:33:19;1.65;;;1.23;;
44646;SDS011;56315;-33.902;151.160;2023-04-30T06:35:47;1.92;;;1.48;;
44646;SDS011;56315;-33.902;151.160;2023-04-30T06:38:19;3.10;;;2.60;;
44646;SDS011;56315;-33.902;151.160;2023-04-30T06:40:47;5.25;;;3.58;;
44646;SDS011;56315;-33.902;151.160;2023-04-30T06:43:14;3.17;;;2.60;;
44646;SDS011;56315;-33.902;151.160;2023-04-30T06:45:42;3.67;;;3.03;;
44646;SDS011;56315;-33.902;151.160;2023-04-30T06:48:09;4.25;;;2.85;;
44646;SDS011;56315;-33.902;151.160;2023-04-30T06:50:37;3.47;;;2.22;;
44646;SDS011;56315;-33.902;151.160;2023-04-30T06:53:12;3.58;;;2.90;;
44646;SDS011;56315;-33.902;151.160;2023-04-30T06:55:40;3.08;;;2.50;;
44646;SDS011;56315;-33.902;151.160;2023-04-30T06:58:08;6.18;;;3.25;;
44646;SDS011;56315;-33.902;151.160;2023-04-30T07:00:35;4.90;;;3.42;;
44646;SDS011;56315;-33.902;151.160;2023-04-30T07:03:03;1.60;;;1.27;;
44646;SDS011;56315;-33.902;151.160;2023-04-30T07:05:30;2.95;;;1.83;;
44646;SDS011;56315;-33.902;151.160;2023-04-30T07:07:59;2.17;;;1.08;;
44646;SDS011;56315;-33.902;151.160;2023-04-30T07:10:28;1.80;;;0.90;;
44646;SDS011;56315;-33.902;151.160;2023-04-30T07:12:56;1.23;;;0.63;;
44646;SDS011;56315;-33.902;151.160;2023-04-30T07:15:24;1.58;;;0.80;;
44646;SDS011;56315;-33.902;151.160;2023-04-30T07:17:51;1.15;;;0.80;;
44646;SDS011;56315;-33.902;151.160;2023-04-30T07:20:19;0.93;;;0.68;;
44646;SDS011;56315;-33.902;151.160;2023-04-30T07:22:47;3.85;;;1.30;;
44646;SDS011;56315;-33.902;151.160;2023-04-30T07:25:14;1.40;;;1.20;;
44646;SDS011;56315;-33.902;151.160;2023-04-30T07:27:42;2.38;;;1.13;;
44646;SDS011;56315;-33.902;151.160;2023-04-30T07:30:09;3.53;;;3.22;;
44646;SDS011;56315;-33.902;151.160;2023-04-30T07:32:37;4.93;;;2.35;;
44646;SDS011;56315;-33.902;151.160;2023-04-30T07:35:06;2.30;;;2.10;;
44646;SDS011;56315;-33.902;151.160;2023-04-30T07:37:33;2.08;;;1.88;;
44646;SDS011;56315;-33.902;151.160;2023-04-30T07:40:01;2.20;;;0.80;;
44646;SDS011;56315;-33.902;151.160;2023-04-30T07:42:29;1.95;;;1.08;;
44646;SDS011;56315;-33.902;151.160;2023-04-30T07:44:56;2.33;;;1.58;;
44646;SDS011;56315;-33.902;151.160;2023-04-30T07:47:25;2.20;;;1.70;;
44646;SDS011;56315;-33.902;151.160;2023-04-30T07:49:52;1.45;;;1.35;;
44646;SDS011;56315;-33.902;151.160;2023-04-30T07:52:20;1.88;;;1.23;;
44646;SDS011;56315;-33.902;151.160;2023-04-30T07:54:47;1.13;;;1.02;;
44646;SDS011;56315;-33.902;151.160;2023-04-30T07:57:14;1.10;;;1.00;;
44646;SDS011;56315;-33.902;151.160;2023-04-30T07:59:42;1.48;;;1.00;;
44646;SDS011;56315;-33.902;151.160;2023-04-30T08:02:09;2.20;;;0.90;;
44646;SDS011;56315;-33.902;151.160;2023-04-30T08:04:36;1.10;;;1.00;;
44646;SDS011;56315;-33.902;151.160;2023-04-30T08:07:04;1.10;;;0.90;;
44646;SDS011;56315;-33.902;151.160;2023-04-30T08:09:32;2.15;;;1.25;;
44646;SDS011;56315;-33.902;151.160;2023-04-30T08:11:59;2.67;;;1.80;;
44646;SDS011;56315;-33.902;151.160;2023-04-30T08:14:26;8.00;;;5.40;;
44646;SDS011;56315;-33.902;151.160;2023-04-30T08:16:53;9.15;;;8.25;;
44646;SDS011;56315;-33.902;151.160;2023-04-30T08:19:22;10.32;;;8.70;;
44646;SDS011;56315;-33.902;151.160;2023-04-30T08:21:50;10.13;;;8.15;;
44646;SDS011;56315;-33.902;151.160;2023-04-30T08:24:17;7.13;;;6.03;;
44646;SDS011;56315;-33.902;151.160;2023-04-30T08:26:45;5.75;;;4.70;;
44646;SDS011;56315;-33.902;151.160;2023-04-30T08:29:12;5.20;;;4.70;;
44646;SDS011;56315;-33.902;151.160;2023-04-30T08:31:40;4.57;;;3.63;;
44646;SDS011;56315;-33.902;151.160;2023-04-30T08:34:08;5.32;;;2.80;;
44646;SDS011;56315;-33.902;151.160;2023-04-30T08:36:35;2.22;;;1.95;;
44646;SDS011;56315;-33.902;151.160;2023-04-30T08:39:02;2.83;;;1.60;;
44646;SDS011;56315;-33.902;151.160;2023-04-30T08:41:31;2.42;;;2.08;;
44646;SDS011;56315;-33.902;151.160;2023-04-30T08:44:01;2.83;;;2.00;;
44646;SDS011;56315;-33.902;151.160;2023-04-30T08:46:30;2.20;;;1.67;;
44646;SDS011;56315;-33.902;151.160;2023-04-30T08:48:59;2.17;;;1.75;;
44646;SDS011;56315;-33.902;151.160;2023-04-30T08:51:28;2.45;;;2.00;;
44646;SDS011;56315;-33.902;151.160;2023-04-30T08:53:57;3.15;;;1.63;;
44646;SDS011;56315;-33.902;151.160;2023-04-30T08:56:25;3.22;;;2.10;;
44646;SDS011;56315;-33.902;151.160;2023-04-30T08:58:54;3.13;;;2.10;;
44646;SDS011;56315;-33.902;151.160;2023-04-30T09:01:21;2.92;;;2.00;;
44646;SDS011;56315;-33.902;151.160;2023-04-30T09:03:49;3.28;;;2.20;;
44646;SDS011;56315;-33.902;151.160;2023-04-30T09:06:16;2.75;;;2.00;;
44646;SDS011;56315;-33.902;151.160;2023-04-30T09:08:44;3.90;;;2.83;;
44646;SDS011;56315;-33.902;151.160;2023-04-30T09:11:29;4.07;;;2.22;;
44646;SDS011;56315;-33.902;151.160;2023-04-30T09:13:57;3.37;;;2.40;;
44646;SDS011;56315;-33.902;151.160;2023-04-30T09:16:26;2.45;;;1.95;;
44646;SDS011;56315;-33.902;151.160;2023-04-30T09:18:57;2.35;;;2.05;;
44646;SDS011;56315;-33.902;151.160;2023-04-30T09:21:31;2.20;;;1.70;;
44646;SDS011;56315;-33.902;151.160;2023-04-30T09:24:03;2.70;;;1.83;;
44646;SDS011;56315;-33.902;151.160;2023-04-30T09:26:35;2.45;;;1.60;;
44646;SDS011;56315;-33.902;151.160;2023-04-30T09:29:04;2.22;;;1.80;;
44646;SDS011;56315;-33.902;151.160;2023-04-30T09:31:38;2.47;;;1.67;;
44646;SDS011;56315;-33.902;151.160;2023-04-30T09:34:12;2.72;;;1.60;;
44646;SDS011;56315;-33.902;151.160;2023-04-30T09:36:53;3.03;;;1.92;;
44646;SDS011;56315;-33.902;151.160;2023-04-30T09:39:21;2.40;;;1.73;;
44646;SDS011;56315;-33.902;151.160;2023-04-30T09:41:51;4.10;;;2.50;;
44646;SDS011;56315;-33.902;151.160;2023-04-30T09:44:28;2.47;;;1.90;;
44646;SDS011;56315;-33.902;151.160;2023-04-30T09:46:57;4.30;;;2.80;;
44646;SDS011;56315;-33.902;151.160;2023-04-30T09:49:25;3.38;;;2.13;;
44646;SDS011;56315;-33.902;151.160;2023-04-30T09:51:53;3.88;;;2.40;;
44646;SDS011;56315;-33.902;151.160;2023-04-30T09:54:27;3.28;;;2.17;;
44646;SDS011;56315;-33.902;151.160;2023-04-30T09:56:57;3.85;;;2.55;;
44646;SDS011;56315;-33.902;151.160;2023-04-30T09:59:29;3.92;;;2.58;;
44646;SDS011;56315;-33.902;151.160;2023-04-30T10:02:05;2.88;;;2.22;;
44646;SDS011;56315;-33.902;151.160;2023-04-30T10:04:37;3.92;;;2.30;;
44646;SDS011;56315;-33.902;151.160;2023-04-30T10:07:11;4.10;;;2.42;;
44646;SDS011;56315;-33.902;151.160;2023-04-30T10:09:56;5.05;;;2.50;;
44646;SDS011;56315;-33.902;151.160;2023-04-30T10:12:47;3.22;;;2.50;;
44646;SDS011;56315;-33.902;151.160;2023-04-30T10:15:20;5.03;;;2.08;;
44646;SDS011;56315;-33.902;151.160;2023-04-30T10:18:01;2.65;;;1.90;;
44646;SDS011;56315;-33.902;151.160;2023-04-30T10:20:49;4.03;;;2.67;;
44646;SDS011;56315;-33.902;151.160;2023-04-30T10:23:19;3.58;;;2.20;;
44646;SDS011;56315;-33.902;151.160;2023-04-30T10:25:47;3.33;;;2.28;;
44646;SDS011;56315;-33.902;151.160;2023-04-30T10:28:17;2.72;;;2.38;;
44646;SDS011;56315;-33.902;151.160;2023-04-30T10:30:45;3.42;;;2.00;;
44646;SDS011;56315;-33.902;151.160;2023-04-30T10:33:24;2.22;;;1.85;;
44646;SDS011;56315;-33.902;151.160;2023-04-30T10:36:03;1.60;;;1.42;;
44646;SDS011;56315;-33.902;151.160;2023-04-30T10:38:35;3.75;;;2.22;;
44646;SDS011;56315;-33.902;151.160;2023-04-30T10:41:05;2.53;;;1.90;;
44646;SDS011;56315;-33.902;151.160;2023-04-30T10:43:34;2.42;;;1.45;;
44646;SDS011;56315;-33.902;151.160;2023-04-30T10:46:02;2.85;;;1.80;;
44646;SDS011;56315;-33.902;151.160;2023-04-30T10:48:29;2.55;;;1.52;;
44646;SDS011;56315;-33.902;151.160;2023-04-30T10:51:00;2.95;;;1.33;;
44646;SDS011;56315;-33.902;151.160;2023-04-30T10:53:31;1.20;;;1.02;;
44646;SDS011;56315;-33.902;151.160;2023-04-30T10:56:04;1.50;;;1.20;;
44646;SDS011;56315;-33.902;151.160;2023-04-30T10:58:39;2.70;;;1.55;;
44646;SDS011;56315;-33.902;151.160;2023-04-30T11:01:10;1.60;;;1.17;;
44646;SDS011;56315;-33.902;151.160;2023-04-30T11:03:39;2.28;;;1.30;;
44646;SDS011;56315;-33.902;151.160;2023-04-30T11:08:36;2.90;;;1.45;;
44646;SDS011;56315;-33.902;151.160;2023-04-30T11:11:19;2.30;;;1.00;;
44646;SDS011;56315;-33.902;151.160;2023-04-30T11:13:47;1.73;;;0.98;;
44646;SDS011;56315;-33.902;151.160;2023-04-30T11:16:30;2.38;;;1.30;;
44646;SDS011;56315;-33.902;151.160;2023-04-30T11:19:33;8.10;;;1.58;;
44646;SDS011;56315;-33.902;151.160;2023-04-30T11:27:22;2.03;;;1.50;;
44646;SDS011;56315;-33.902;151.160;2023-04-30T11:29:51;2.45;;;1.35;;
44646;SDS011;56315;-33.902;151.160;2023-04-30T11:32:19;2.25;;;1.27;;
44646;SDS011;56315;-33.902;151.160;2023-04-30T11:34:49;2.05;;;1.40;;
44646;SDS011;56315;-33.902;151.160;2023-04-30T11:37:23;2.30;;;1.55;;
44646;SDS011;56315;-33.902;151.160;2023-04-30T11:39:59;1.23;;;1.08;;
44646;SDS011;56315;-33.902;151.160;2023-04-30T11:42:28;1.90;;;1.25;;
44646;SDS011;56315;-33.902;151.160;2023-04-30T11:45:05;2.83;;;1.33;;
44646;SDS011;56315;-33.902;151.160;2023-04-30T11:47:40;1.95;;;1.52;;
44646;SDS011;56315;-33.902;151.160;2023-04-30T11:50:12;2.38;;;1.60;;
44646;SDS011;56315;-33.902;151.160;2023-04-30T11:52:52;2.00;;;1.27;;
44646;SDS011;56315;-33.902;151.160;2023-04-30T11:55:21;2.13;;;1.27;;
44646;SDS011;56315;-33.902;151.160;2023-04-30T11:57:51;1.48;;;1.10;;
44646;SDS011;56315;-33.902;151.160;2023-04-30T12:00:27;2.03;;;0.90;;
44646;SDS011;56315;-33.902;151.160;2023-04-30T12:02:56;2.20;;;0.90;;
44646;SDS011;56315;-33.902;151.160;2023-04-30T12:05:29;2.08;;;1.10;;
44646;SDS011;56315;-33.902;151.160;2023-04-30T12:07:58;2.30;;;1.52;;
44646;SDS011;56315;-33.902;151.160;2023-04-30T12:10:32;2.90;;;1.77;;
44646;SDS011;56315;-33.902;151.160;2023-04-30T12:13:00;1.48;;;1.33;;
44646;SDS011;56315;-33.902;151.160;2023-04-30T12:15:28;1.73;;;1.10;;
44646;SDS011;56315;-33.902;151.160;2023-04-30T12:17:56;2.75;;;1.20;;
44646;SDS011;56315;-33.902;151.160;2023-04-30T12:20:26;1.63;;;1.02;;
44646;SDS011;56315;-33.902;151.160;2023-04-30T12:22:54;2.30;;;1.30;;
44646;SDS011;56315;-33.902;151.160;2023-04-30T12:25:23;1.77;;;1.25;;
44646;SDS011;56315;-33.902;151.160;2023-04-30T12:27:53;1.65;;;1.20;;
44646;SDS011;56315;-33.902;151.160;2023-04-30T12:30:24;2.28;;;1.50;;
44646;SDS011;56315;-33.902;151.160;2023-04-30T12:32:52;2.35;;;1.25;;
44646;SDS011;56315;-33.902;151.160;2023-04-30T12:35:23;2.70;;;1.20;;
44646;SDS011;56315;-33.902;151.160;2023-04-30T12:37:55;2.00;;;1.15;;
44646;SDS011;56315;-33.902;151.160;2023-04-30T12:40:28;1.50;;;1.00;;
44646;SDS011;56315;-33.902;151.160;2023-04-30T12:48:18;2.08;;;1.50;;
44646;SDS011;56315;-33.902;151.160;2023-04-30T12:51:08;3.00;;;1.70;;
44646;SDS011;56315;-33.902;151.160;2023-04-30T12:53:44;4.72;;;2.08;;
44646;SDS011;56315;-33.902;151.160;2023-04-30T12:56:13;2.63;;;1.80;;
44646;SDS011;56315;-33.902;151.160;2023-04-30T12:58:42;3.10;;;2.80;;
44646;SDS011;56315;-33.902;151.160;2023-04-30T13:01:12;2.67;;;2.05;;
44646;SDS011;56315;-33.902;151.160;2023-04-30T13:03:42;4.05;;;2.42;;
44646;SDS011;56315;-33.902;151.160;2023-04-30T13:06:09;3.63;;;2.50;;
44646;SDS011;56315;-33.902;151.160;2023-04-30T13:08:36;2.50;;;2.17;;
44646;SDS011;56315;-33.902;151.160;2023-04-30T13:11:04;3.97;;;2.60;;
44646;SDS011;56315;-33.902;151.160;2023-04-30T13:13:31;4.22;;;3.10;;
44646;SDS011;56315;-33.902;151.160;2023-04-30T13:15:59;3.40;;;2.10;;
44646;SDS011;56315;-33.902;151.160;2023-04-30T13:18:26;2.80;;;2.50;;
44646;SDS011;56315;-33.902;151.160;2023-04-30T13:20:54;3.30;;;2.42;;
44646;SDS011;56315;-33.902;151.160;2023-04-30T13:23:21;3.65;;;2.78;;
44646;SDS011;56315;-33.902;151.160;2023-04-30T13:25:48;3.20;;;2.50;;
44646;SDS011;56315;-33.902;151.160;2023-04-30T13:28:16;3.70;;;3.00;;
44646;SDS011;56315;-33.902;151.160;2023-04-30T13:30:43;3.20;;;2.70;;
44646;SDS011;56315;-33.902;151.160;2023-04-30T13:33:10;3.92;;;2.90;;
44646;SDS011;56315;-33.902;151.160;2023-04-30T13:35:38;2.95;;;2.63;;
44646;SDS011;56315;-33.902;151.160;2023-04-30T13:38:05;3.70;;;2.85;;
44646;SDS011;56315;-33.902;151.160;2023-04-30T13:40:32;3.38;;;2.53;;
44646;SDS011;56315;-33.902;151.160;2023-04-30T13:43:00;2.63;;;2.13;;
44646;SDS011;56315;-33.902;151.160;2023-04-30T13:45:28;3.08;;;2.15;;
44646;SDS011;56315;-33.902;151.160;2023-04-30T13:47:55;2.53;;;2.00;;
44646;SDS011;56315;-33.902;151.160;2023-04-30T13:50:23;4.22;;;2.30;;
44646;SDS011;56315;-33.902;151.160;2023-04-30T13:52:50;2.60;;;2.08;;
44646;SDS011;56315;-33.902;151.160;2023-04-30T13:55:18;3.35;;;2.10;;
44646;SDS011;56315;-33.902;151.160;2023-04-30T13:57:45;2.85;;;1.90;;
44646;SDS011;56315;-33.902;151.160;2023-04-30T14:00:12;3.35;;;1.80;;
44646;SDS011;56315;-33.902;151.160;2023-04-30T14:02:40;2.92;;;1.92;;
44646;SDS011;56315;-33.902;151.160;2023-04-30T14:05:08;3.97;;;2.10;;
44646;SDS011;56315;-33.902;151.160;2023-04-30T14:07:35;2.55;;;1.73;;
44646;SDS011;56315;-33.902;151.160;2023-04-30T14:10:03;3.25;;;1.95;;
44646;SDS011;56315;-33.902;151.160;2023-04-30T14:12:31;2.22;;;1.73;;
44646;SDS011;56315;-33.902;151.160;2023-04-30T14:14:58;2.40;;;1.60;;
44646;SDS011;56315;-33.902;151.160;2023-04-30T14:17:26;2.50;;;1.85;;
44646;SDS011;56315;-33.902;151.160;2023-04-30T14:19:54;2.97;;;1.75;;
44646;SDS011;56315;-33.902;151.160;2023-04-30T14:22:22;4.28;;;1.88;;
44646;SDS011;56315;-33.902;151.160;2023-04-30T14:24:50;3.00;;;2.10;;
44646;SDS011;56315;-33.902;151.160;2023-04-30T14:27:18;2.75;;;2.00;;
44646;SDS011;56315;-33.902;151.160;2023-04-30T14:29:45;2.88;;;1.92;;
44646;SDS011;56315;-33.902;151.160;2023-04-30T14:32:13;2.60;;;2.03;;
44646;SDS011;56315;-33.902;151.160;2023-04-30T14:34:40;2.60;;;2.00;;
44646;SDS011;56315;-33.902;151.160;2023-04-30T14:37:07;2.72;;;1.90;;
44646;SDS011;56315;-33.902;151.160;2023-04-30T14:39:35;3.33;;;2.17;;
44646;SDS011;56315;-33.902;151.160;2023-04-30T14:42:02;2.38;;;2.00;;
44646;SDS011;56315;-33.902;151.160;2023-04-30T14:44:29;2.65;;;2.05;;
44646;SDS011;56315;-33.902;151.160;2023-04-30T14:46:56;2.30;;;1.95;;